Time;durP1;ratioP1;P1;durP2;ratioP2;P2;SDS_P1;SDS_P2;PMS_P1;PMS_P2;Temp;Humidity;BMP_temperature;BMP_pressure;BME280_temperature;BME280_humidity;BME280_pressure;Samples;Min_cycle;Max_cycle;Signal;HPM_P1;HPM_P2
2024/04/16 00:00:42;;;;;;;13.80;9.30;;;;;;;8.95;72.77;98571.23;111278;1252;21949;-67
2024/04/16 00:03:32;;;;;;;11.80;8.10;;;;;;;8.92;72.98;98567.91;111228;1252;21967;-66
2024/04/16 00:06:01;;;;;;;13.80;9.60;;;;;;;8.95;72.96;98567.99;111285;1252;22997;-66
2024/04/16 00:08:30;;;;;;;12.10;9.30;;;;;;;8.95;72.80;98573.79;111300;1252;21960;-67
2024/04/16 00:11:03;;;;;;;13.00;9.10;;;;;;;8.91;72.99;98586.45;111249;1244;21967;-68
2024/04/16 00:13:31;;;;;;;15.30;10.40;;;;;;;8.88;73.05;98593.98;110958;1252;21964;-68
2024/04/16 00:16:23;;;;;;;14.20;9.50;;;;;;;8.83;73.47;98590.56;111479;1252;21940;-67
2024/04/16 00:18:52;;;;;;;13.70;9.40;;;;;;;8.79;73.69;98580.23;111242;1252;23700;-68
2024/04/16 00:21:21;;;;;;;11.70;9.60;;;;;;;8.77;73.62;98585.66;111559;1252;22942;-66
2024/04/16 00:23:49;;;;;;;12.40;9.90;;;;;;;8.77;74.03;98586.66;111233;1251;21954;-68
2024/04/16 00:26:18;;;;;;;10.60;9.50;;;;;;;8.80;74.19;98590.79;111329;1252;21961;-65
2024/04/16 00:28:47;;;;;;;11.20;9.00;;;;;;;8.85;74.31;98591.03;111254;1252;21952;-66
2024/04/16 00:31:16;;;;;;;13.40;9.00;;;;;;;8.90;74.29;98591.47;111289;1252;21952;-67
2024/04/16 00:33:45;;;;;;;11.00;8.10;;;;;;;8.94;74.38;98591.96;111060;1252;21963;-67
2024/04/16 00:36:14;;;;;;;11.50;8.50;;;;;;;8.98;74.46;98582.48;111258;1252;21946;-67
2024/04/16 00:38:43;;;;;;;13.60;10.80;;;;;;;9.01;74.37;98579.43;110986;1252;21955;-67
2024/04/16 00:41:12;;;;;;;14.60;12.50;;;;;;;9.03;74.41;98588.74;111328;1252;21954;-67
2024/04/16 00:43:41;;;;;;;12.10;9.00;;;;;;;9.03;74.30;98607.90;111308;1252;21954;-66
2024/04/16 00:46:12;;;;;;;11.10;8.80;;;;;;;9.02;74.40;98611.42;111274;1252;21954;-67
2024/04/16 00:48:41;;;;;;;9.50;8.60;;;;;;;9.04;74.33;98613.77;111093;1252;22395;-67
2024/04/16 00:51:10;;;;;;;9.70;7.90;;;;;;;9.05;74.61;98614.20;111385;1252;21960;-67
2024/04/16 00:53:41;;;;;;;15.20;8.50;;;;;;;9.07;74.52;98626.11;111098;1252;245068;-67
2024/04/16 00:56:10;;;;;;;9.90;8.70;;;;;;;9.11;74.50;98635.94;111565;1252;21976;-68
2024/04/16 00:58:42;;;;;;;9.00;7.60;;;;;;;9.16;74.43;98641.43;111027;1252;22134;-66
2024/04/16 01:01:11;;;;;;;9.50;7.70;;;;;;;9.22;74.24;98646.36;111558;1252;21949;-67
2024/04/16 01:03:43;;;;;;;11.00;8.70;;;;;;;9.26;73.96;98651.91;111220;1252;23162;-67
2024/04/16 01:06:12;;;;;;;10.10;9.00;;;;;;;9.29;73.88;98643.56;111521;1252;21951;-68
2024/04/16 01:08:40;;;;;;;12.60;10.00;;;;;;;9.29;73.76;98634.45;111252;1252;23557;-67
2024/04/16 01:11:09;;;;;;;11.20;9.20;;;;;;;9.29;73.76;98642.14;111250;1252;24450;-68
2024/04/16 01:13:38;;;;;;;11.20;9.70;;;;;;;9.31;73.70;98646.54;111541;1252;21952;-68
2024/04/16 01:16:07;;;;;;;14.70;9.60;;;;;;;9.34;73.68;98643.48;111200;1252;21971;-67
2024/04/16 01:18:36;;;;;;;12.50;9.30;;;;;;;9.36;73.48;98644.37;111464;1252;21949;-66
2024/04/16 01:21:04;;;;;;;15.00;9.70;;;;;;;9.37;73.47;98641.92;111237;1252;21965;-67
2024/04/16 01:23:33;;;;;;;10.90;9.70;;;;;;;9.39;73.23;98632.41;111544;1252;21951;-68
2024/04/16 01:26:02;;;;;;;10.30;8.30;;;;;;;9.40;73.23;98619.48;111566;1252;21992;-67
2024/04/16 01:28:31;;;;;;;12.70;8.30;;;;;;;9.41;73.15;98605.88;111322;1252;21959;-67
2024/04/16 01:31:00;;;;;;;11.00;8.30;;;;;;;9.41;72.92;98590.13;111340;1252;22026;-68
2024/04/16 01:33:28;;;;;;;11.50;8.00;;;;;;;9.39;72.80;98592.90;111231;1252;22041;-68
2024/04/16 01:35:58;;;;;;;12.70;7.90;;;;;;;9.38;72.83;98603.07;111273;1252;22117;-67
2024/04/16 01:38:26;;;;;;;11.20;7.60;;;;;;;9.36;72.97;98624.45;111344;1252;23598;-67
2024/04/16 01:40:55;;;;;;;10.70;6.90;;;;;;;9.36;72.92;98622.52;111395;1252;21958;-67
2024/04/16 01:43:24;;;;;;;10.20;7.50;;;;;;;9.36;72.89;98612.91;111422;1252;21960;-68
2024/04/16 01:45:53;;;;;;;7.60;6.50;;;;;;;9.33;72.67;98601.58;111256;1252;21961;-67
2024/04/16 01:48:22;;;;;;;9.40;6.30;;;;;;;9.30;72.43;98598.48;111311;1252;21960;-67
2024/04/16 01:50:51;;;;;;;6.80;5.20;;;;;;;9.27;72.06;98597.00;111300;1252;22854;-67
2024/04/16 01:53:20;;;;;;;6.60;4.30;;;;;;;9.24;71.46;98603.98;111262;1252;21958;-67
2024/04/16 01:55:49;;;;;;;9.30;4.30;;;;;;;9.22;71.25;98606.33;111294;1252;22181;-68
2024/04/16 01:58:17;;;;;;;4.90;3.50;;;;;;;9.21;70.97;98612.55;111209;1239;21967;-67
2024/04/16 02:00:46;;;;;;;5.10;3.70;;;;;;;9.20;70.40;98618.94;111343;1247;21940;-66
2024/04/16 02:03:15;;;;;;;3.20;2.60;;;;;;;9.20;70.29;98622.98;111343;1252;21948;-65
2024/04/16 02:05:44;;;;;;;5.80;3.10;;;;;;;9.20;70.13;98617.84;111346;1252;22006;-67
2024/04/16 02:08:13;;;;;;;5.90;3.10;;;;;;;9.22;70.12;98613.27;111389;1252;21937;-68
2024/04/16 02:11:02;;;;;;;8.60;4.20;;;;;;;9.25;69.99;98617.98;111295;1252;21953;-67
2024/04/16 02:13:31;;;;;;;4.80;3.80;;;;;;;9.24;70.03;98630.16;111327;1252;21963;-66
2024/04/16 02:16:00;;;;;;;8.90;3.70;;;;;;;9.23;70.38;98640.61;111059;1252;21960;-68
2024/04/16 02:18:29;;;;;;;4.40;2.70;;;;;;;9.18;70.01;98653.04;111346;1252;21952;-67
2024/04/16 02:20:58;;;;;;;5.20;1.60;;;;;;;9.07;69.05;98677.23;111091;1252;22123;-66
2024/04/16 02:23:27;;;;;;;2.10;0.90;;;;;;;8.91;67.95;98703.02;111363;1250;21958;-67
2024/04/16 02:25:57;;;;;;;2.40;1.40;;;;;;;8.67;66.57;98703.27;111305;1252;21953;-66
2024/04/16 02:28:25;;;;;;;5.50;1.30;;;;;;;8.44;66.72;98707.58;111245;1252;21953;-66
2024/04/16 02:30:54;;;;;;;2.20;1.90;;;;;;;8.22;66.73;98721.33;111337;1252;21949;-67
2024/04/16 02:33:23;;;;;;;4.80;2.00;;;;;;;8.10;67.17;98724.12;111348;1252;23673;-68
2024/04/16 02:35:54;;;;;;;2.80;2.20;;;;;;;8.01;66.92;98730.23;111299;1252;23569;-66
2024/04/16 02:38:23;;;;;;;2.60;2.00;;;;;;;7.89;66.95;98735.73;111560;1252;22524;-66
2024/04/16 02:40:52;;;;;;;3.10;2.40;;;;;;;7.81;67.00;98738.91;110990;1248;21955;-66
2024/04/16 02:43:21;;;;;;;4.80;2.40;;;;;;;7.75;67.03;98744.49;110970;1252;21977;-66
2024/04/16 02:45:50;;;;;;;4.00;2.00;;;;;;;7.68;66.56;98743.11;111333;1252;22758;-67
2024/04/16 02:48:19;;;;;;;4.40;1.90;;;;;;;7.61;66.64;98745.48;111321;1252;21961;-67
2024/04/16 02:50:52;;;;;;;4.40;1.80;;;;;;;7.55;67.06;98743.33;111078;1252;21955;-66
2024/04/16 02:53:20;;;;;;;4.10;2.20;;;;;;;7.48;66.79;98737.41;111312;1252;21961;-67
2024/04/16 02:55:49;;;;;;;3.20;2.00;;;;;;;7.44;66.62;98734.09;111260;1252;22031;-67
2024/04/16 02:58:18;;;;;;;2.30;1.80;;;;;;;7.41;66.69;98734.34;111340;1252;22725;-67
2024/04/16 03:00:47;;;;;;;2.00;1.70;;;;;;;7.39;66.58;98738.30;111280;1252;21957;-67
2024/04/16 03:03:16;;;;;;;3.20;1.90;;;;;;;7.36;66.34;98736.16;111411;1245;21946;-66
2024/04/16 03:05:45;;;;;;;5.20;2.20;;;;;;;7.32;66.42;98738.45;111306;1252;21947;-67
2024/04/16 03:08:14;;;;;;;2.50;1.60;;;;;;;7.29;66.28;98741.67;111283;1252;21966;-65
2024/04/16 03:10:43;;;;;;;2.10;1.60;;;;;;;7.26;65.93;98742.45;111289;1252;23029;-66
2024/04/16 03:13:12;;;;;;;3.70;1.90;;;;;;;7.23;65.60;98745.30;111296;1252;21993;-66
2024/04/16 03:15:41;;;;;;;9.00;2.10;;;;;;;7.19;65.56;98746.30;111319;1252;21960;-66
2024/04/16 03:18:09;;;;;;;2.60;1.80;;;;;;;7.14;65.11;98744.27;111337;1252;21961;-67
2024/04/16 03:20:38;;;;;;;3.90;2.20;;;;;;;7.10;65.34;98751.83;111343;1252;21946;-68
2024/04/16 03:23:07;;;;;;;3.70;2.10;;;;;;;7.06;65.23;98760.70;111283;1252;23482;-68
2024/04/16 03:25:43;;;;;;;2.60;1.90;;;;;;;6.99;65.21;98754.19;111056;1252;21950;-66
2024/04/16 03:28:12;;;;;;;2.60;2.10;;;;;;;6.92;64.98;98755.14;111075;1252;21949;-66
2024/04/16 03:30:41;;;;;;;4.70;2.00;;;;;;;6.87;65.21;98756.91;111628;1252;21961;-66
2024/04/16 03:33:09;;;;;;;3.90;1.80;;;;;;;6.86;65.16;98762.48;111266;1252;21963;-66
2024/04/16 03:35:38;;;;;;;2.90;1.80;;;;;;;6.83;64.88;98759.52;111332;1252;21955;-66
2024/04/16 03:38:07;;;;;;;3.90;2.10;;;;;;;6.83;65.03;98759.36;111303;1252;22126;-67
2024/04/16 03:40:36;;;;;;;3.30;2.30;;;;;;;6.78;64.63;98760.64;111298;1252;22535;-67
2024/04/16 03:43:05;;;;;;;3.60;2.10;;;;;;;6.72;64.68;98759.02;111319;1252;21952;-67
2024/04/16 03:45:35;;;;;;;4.90;2.40;;;;;;;6.66;64.64;98757.11;111492;1252;21958;-67
2024/04/16 03:48:04;;;;;;;3.10;2.50;;;;;;;6.61;64.87;98760.59;111272;1252;21952;-66
2024/04/16 03:50:33;;;;;;;6.20;2.50;;;;;;;6.58;65.36;98763.86;111309;1252;23690;-68
2024/04/16 03:53:03;;;;;;;2.90;2.10;;;;;;;6.53;65.02;98761.45;111289;1252;21949;-68
2024/04/16 03:55:31;;;;;;;4.80;2.90;;;;;;;6.48;65.13;98764.59;111522;1252;21972;-68
2024/04/16 03:58:00;;;;;;;2.70;2.40;;;;;;;6.46;65.35;98766.50;111592;1252;21952;-66
2024/04/16 04:03:17;;;;;;;6.00;3.20;;;;;;;6.46;65.72;98789.20;111617;1252;22310;-69
2024/04/16 04:05:47;;;;;;;2.90;2.50;;;;;;;6.49;65.49;98785.16;111556;1252;23613;-67
2024/04/16 04:08:16;;;;;;;3.10;2.30;;;;;;;6.52;65.31;98790.66;111522;1245;21949;-70
2024/04/16 04:10:45;;;;;;;6.30;2.50;;;;;;;6.57;65.20;98795.37;111292;1252;22746;-68
2024/04/16 04:13:14;;;;;;;4.20;2.70;;;;;;;6.61;65.32;98799.66;111451;1252;23727;-70
2024/04/16 04:15:44;;;;;;;5.10;2.60;;;;;;;6.64;65.21;98810.96;111093;1252;21954;-67
2024/04/16 04:18:13;;;;;;;6.30;3.00;;;;;;;6.65;65.03;98815.59;111631;1252;21945;-68
2024/04/16 04:20:42;;;;;;;6.60;3.10;;;;;;;6.66;64.71;98821.10;111298;1252;21964;-66
2024/04/16 04:23:11;;;;;;;4.90;2.40;;;;;;;6.67;64.67;98815.72;111568;1252;23566;-67
2024/04/16 04:25:40;;;;;;;6.80;3.10;;;;;;;6.68;64.53;98810.21;111525;1252;22222;-66
2024/04/16 04:28:09;;;;;;;3.50;2.90;;;;;;;6.67;64.55;98826.91;111273;1252;22635;-68
2024/04/16 04:30:38;;;;;;;5.30;3.20;;;;;;;6.69;64.62;98840.27;111613;1252;22036;-68
2024/04/16 04:33:07;;;;;;;7.90;3.60;;;;;;;6.74;64.76;98832.87;111240;1252;23029;-66
2024/04/16 04:35:36;;;;;;;4.60;3.20;;;;;;;6.80;64.66;98840.44;111276;1248;21990;-66
2024/04/16 04:38:05;;;;;;;6.40;2.90;;;;;;;6.84;64.69;98841.14;111316;1252;21954;-66
2024/04/16 04:40:36;;;;;;;6.70;3.00;;;;;;;6.89;64.35;98850.53;111250;1252;22029;-65
2024/04/16 04:43:05;;;;;;;3.70;2.80;;;;;;;6.90;64.09;98850.63;111338;1252;21956;-65
2024/04/16 04:45:34;;;;;;;4.70;2.50;;;;;;;6.91;64.07;98864.91;111334;1252;21952;-66
2024/04/16 04:48:04;;;;;;;4.00;2.90;;;;;;;6.92;63.41;98872.72;111296;1252;22417;-66
2024/04/16 04:50:32;;;;;;;4.80;2.20;;;;;;;6.91;63.26;98871.91;111276;1252;21952;-66
2024/04/16 04:53:02;;;;;;;4.50;2.40;;;;;;;6.91;63.08;98879.09;111265;1252;22730;-65
2024/04/16 04:55:31;;;;;;;4.30;2.30;;;;;;;6.93;62.86;98877.70;111447;1252;21952;-66
2024/04/16 04:58:01;;;;;;;6.50;2.80;;;;;;;6.97;62.87;98880.55;111311;1252;21951;-66
2024/04/16 05:00:30;;;;;;;3.80;2.50;;;;;;;7.02;62.53;98879.27;111319;1252;21952;-66
2024/04/16 05:02:59;;;;;;;6.60;3.30;;;;;;;7.06;62.31;98862.56;111447;1252;21950;-65
2024/04/16 05:05:32;;;;;;;5.60;2.20;;;;;;;7.08;62.18;98859.55;111304;1252;21955;-64
2024/04/16 05:08:01;;;;;;;5.20;2.20;;;;;;;7.12;61.72;98874.80;111363;1252;21962;-66
2024/04/16 05:10:30;;;;;;;5.00;2.30;;;;;;;7.17;61.32;98887.20;111339;1252;21950;-66
2024/04/16 05:12:58;;;;;;;6.70;2.90;;;;;;;7.19;60.91;98894.06;111251;1252;23653;-65
2024/04/16 05:15:27;;;;;;;3.10;1.90;;;;;;;7.21;60.97;98897.89;111280;1252;21961;-67
2024/04/16 05:17:57;;;;;;;2.90;2.20;;;;;;;7.25;61.13;98903.88;111260;1241;23767;-66
2024/04/16 05:20:26;;;;;;;4.10;2.10;;;;;;;7.27;61.13;98901.96;111287;1252;22036;-67
2024/04/16 05:22:55;;;;;;;4.00;1.90;;;;;;;7.31;61.17;98899.71;111321;1252;22032;-68
2024/04/16 05:25:24;;;;;;;6.60;1.50;;;;;;;7.36;60.54;98899.38;111258;1252;21959;-67
2024/04/16 05:27:52;;;;;;;3.80;2.00;;;;;;;7.37;60.31;98904.14;111439;1252;21957;-66
2024/04/16 05:30:21;;;;;;;4.40;2.00;;;;;;;7.40;60.07;98903.54;111320;1252;21960;-66
2024/04/16 05:32:52;;;;;;;3.90;2.30;;;;;;;7.42;60.19;98899.00;111245;1252;22009;-68
2024/04/16 05:35:21;;;;;;;4.10;2.40;;;;;;;7.44;59.68;98904.09;111335;1252;21964;-66
2024/04/16 05:37:50;;;;;;;6.20;2.30;;;;;;;7.47;59.68;98909.48;111312;1252;21957;-66
2024/04/16 05:40:20;;;;;;;6.20;2.50;;;;;;;7.51;59.61;98922.84;111318;1252;21966;-68
2024/04/16 05:42:49;;;;;;;5.10;2.30;;;;;;;7.53;59.39;98920.75;111317;1252;22030;-68
2024/04/16 05:45:18;;;;;;;4.30;2.40;;;;;;;7.56;59.67;98919.34;111608;1252;22245;-67
2024/04/16 05:47:47;;;;;;;5.60;3.00;;;;;;;7.58;59.49;98924.36;111251;1252;22942;-70
2024/04/16 05:50:16;;;;;;;5.50;2.50;;;;;;;7.61;59.34;98927.80;111296;1252;22723;-67
2024/04/16 05:52:45;;;;;;;9.00;3.90;;;;;;;7.67;59.50;98923.98;110597;1259;21970;-67
2024/04/16 05:55:14;;;;;;;6.90;3.40;;;;;;;7.75;59.48;98930.33;110471;1259;21974;-67
2024/04/16 05:57:43;;;;;;;6.40;3.90;;;;;;;7.80;58.97;98930.68;110527;1259;21965;-67
2024/04/16 06:00:13;;;;;;;5.00;3.20;;;;;;;7.86;58.68;98930.35;110488;1259;22106;-67
2024/04/16 06:02:42;;;;;;;3.40;2.30;;;;;;;7.93;58.56;98933.58;110531;1259;23736;-66
2024/04/16 06:05:11;;;;;;;4.60;2.90;;;;;;;8.02;58.56;98937.42;110423;1259;21957;-66
2024/04/16 06:07:39;;;;;;;3.70;2.80;;;;;;;8.12;58.39;98948.22;110486;1259;22105;-67
2024/04/16 06:10:08;;;;;;;3.40;2.20;;;;;;;8.17;57.49;98951.84;110482;1259;22344;-66
2024/04/16 06:12:37;;;;;;;3.70;2.70;;;;;;;8.21;57.28;98948.30;110446;1259;21997;-66
2024/04/16 06:15:07;;;;;;;5.10;2.90;;;;;;;8.24;57.22;98953.11;110475;1259;21962;-69
2024/04/16 06:17:36;;;;;;;4.80;3.20;;;;;;;8.28;57.40;98953.50;110742;1252;21952;-66
2024/04/16 06:20:09;;;;;;;4.60;2.60;;;;;;;8.32;57.02;98954.81;111333;1252;21957;-65
2024/04/16 06:22:39;;;;;;;6.40;3.30;;;;;;;8.28;56.69;98951.21;111320;1252;22424;-66
2024/04/16 06:25:08;;;;;;;6.50;2.80;;;;;;;8.25;56.63;98953.06;111298;1252;21955;-65
2024/04/16 06:27:37;;;;;;;3.50;2.30;;;;;;;8.26;56.97;98963.84;111305;1252;22026;-66
2024/04/16 06:30:07;;;;;;;6.90;3.50;;;;;;;8.29;56.73;98960.98;111359;1251;21963;-69
2024/04/16 06:32:36;;;;;;;5.80;2.80;;;;;;;8.28;56.44;98960.36;111395;1251;23312;-68
2024/04/16 06:35:05;;;;;;;7.60;3.90;;;;;;;8.25;56.52;98966.03;111607;1251;21957;-65
2024/04/16 06:37:34;;;;;;;18.40;11.60;;;;;;;8.26;56.34;98972.65;111369;1251;21973;-68
2024/04/16 06:40:04;;;;;;;9.70;5.40;;;;;;;8.25;56.20;98974.26;111450;1251;23602;-65
2024/04/16 06:42:36;;;;;;;5.90;3.90;;;;;;;8.27;56.11;98976.23;111327;1251;21963;-67
2024/04/16 06:45:06;;;;;;;11.00;4.20;;;;;;;8.27;56.00;98975.02;111335;1251;21949;-64
2024/04/16 06:47:34;;;;;;;7.00;3.00;;;;;;;8.35;56.20;98974.03;111358;1251;22168;-65
2024/04/16 06:50:04;;;;;;;6.60;2.60;;;;;;;8.44;55.94;98972.55;111401;1251;21957;-64
2024/04/16 06:52:33;;;;;;;4.50;3.40;;;;;;;8.55;55.54;98969.36;111310;1251;21952;-65
2024/04/16 06:55:02;;;;;;;6.00;3.00;;;;;;;8.64;54.73;98966.71;111354;1251;24963;-67
2024/04/16 06:57:31;;;;;;;4.90;3.10;;;;;;;8.76;55.00;98971.80;111346;1251;23580;-66
2024/04/16 07:00:00;;;;;;;5.00;2.70;;;;;;;8.99;54.69;98968.81;111362;1251;21950;-64
2024/04/16 07:02:29;;;;;;;5.50;2.80;;;;;;;9.26;53.78;98962.98;111387;1251;21950;-66
2024/04/16 07:04:58;;;;;;;4.60;3.00;;;;;;;9.61;53.26;98955.50;111380;1251;22022;-65
2024/04/16 07:07:27;;;;;;;4.80;2.90;;;;;;;10.20;52.40;98949.52;111288;1251;23704;-65
2024/04/16 07:09:56;;;;;;;5.10;3.00;;;;;;;10.79;50.73;98949.91;111359;1251;23643;-66
2024/04/16 07:12:25;;;;;;;7.20;2.80;;;;;;;11.36;49.08;98945.38;111301;1251;21959;-67
2024/04/16 07:14:54;;;;;;;5.70;3.00;;;;;;;11.90;48.03;98953.80;111313;1251;22063;-66
2024/04/16 07:17:23;;;;;;;4.00;2.10;;;;;;;12.22;47.34;98951.66;111449;1251;23608;-65
2024/04/16 07:19:52;;;;;;;5.60;2.00;;;;;;;12.44;46.09;98954.00;111348;1251;22917;-65
2024/04/16 07:22:21;;;;;;;4.10;2.30;;;;;;;12.34;46.09;98953.95;111338;1251;21996;-65
2024/04/16 07:24:50;;;;;;;3.60;2.20;;;;;;;12.21;45.80;98956.17;111336;1251;21957;-65
2024/04/16 07:27:19;;;;;;;3.90;2.70;;;;;;;12.16;46.32;98952.23;111327;1251;24330;-65
2024/04/16 07:29:48;;;;;;;4.70;2.40;;;;;;;12.41;45.45;98949.20;111155;1251;22863;-64
2024/04/16 07:32:17;;;;;;;5.40;2.10;;;;;;;12.81;44.84;98943.80;111377;1251;22737;-66
2024/04/16 07:34:46;;;;;;;4.90;2.30;;;;;;;13.09;43.69;98936.63;111435;1251;22322;-66
2024/04/16 07:37:15;;;;;;;3.50;2.20;;;;;;;13.15;43.14;98939.76;111383;1251;21946;-66
2024/04/16 07:39:47;;;;;;;4.30;2.00;;;;;;;13.33;42.87;98937.86;111362;1251;23366;-66
2024/04/16 07:42:16;;;;;;;4.80;2.10;;;;;;;13.53;42.30;98941.73;111343;1251;21952;-67
2024/04/16 07:44:44;;;;;;;3.30;2.10;;;;;;;13.49;42.06;98945.86;111386;1251;21996;-68
2024/04/16 07:47:14;;;;;;;4.60;2.90;;;;;;;13.30;42.22;98948.98;111318;1251;22041;-65
2024/04/16 07:49:43;;;;;;;3.00;2.40;;;;;;;13.05;42.35;98949.11;111394;1251;21961;-65
2024/04/16 07:52:12;;;;;;;4.40;2.20;;;;;;;12.98;42.73;98946.98;111301;1251;21950;-67
2024/04/16 07:54:41;;;;;;;3.90;2.00;;;;;;;13.02;41.99;98940.58;111357;1251;22023;-65
2024/04/16 07:57:09;;;;;;;4.70;2.50;;;;;;;13.26;42.24;98942.56;111368;1251;22045;-66
2024/04/16 07:59:38;;;;;;;5.70;2.90;;;;;;;13.36;41.32;98943.85;111369;1251;21963;-68
2024/04/16 08:02:07;;;;;;;11.20;4.80;;;;;;;13.08;41.28;98942.45;111356;1251;21982;-64
2024/04/16 08:04:36;;;;;;;7.00;4.90;;;;;;;12.83;41.96;98941.85;111357;1251;23627;-67
2024/04/16 08:07:05;;;;;;;6.20;3.70;;;;;;;12.67;42.26;98947.39;111402;1251;21957;-65
2024/04/16 08:09:34;;;;;;;5.90;3.10;;;;;;;12.53;42.45;98946.65;111403;1251;21963;-66
2024/04/16 08:12:04;;;;;;;6.40;2.20;;;;;;;12.46;42.50;98945.38;111396;1251;22738;-66
2024/04/16 08:14:33;;;;;;;2.90;2.00;;;;;;;12.35;42.72;98944.50;111339;1251;21954;-66
2024/04/16 08:17:02;;;;;;;4.00;2.10;;;;;;;12.43;42.86;98942.34;111649;1251;22407;-65
2024/04/16 08:19:31;;;;;;;6.10;4.10;;;;;;;12.73;42.52;98943.48;111315;1251;22037;-65
2024/04/16 08:22:00;;;;;;;5.60;2.40;;;;;;;13.27;41.86;98941.88;111366;1251;23133;-66
2024/04/16 08:24:34;;;;;;;6.50;2.40;;;;;;;13.82;40.50;98938.95;111336;1251;21949;-66
2024/04/16 08:27:03;;;;;;;7.40;2.40;;;;;;;14.35;39.36;98932.24;111267;1251;21955;-65
2024/04/16 08:29:32;;;;;;;6.60;2.00;;;;;;;14.67;38.21;98935.34;111347;1251;21948;-65
2024/04/16 08:32:01;;;;;;;5.10;1.90;;;;;;;14.77;37.21;98940.55;111352;1251;21964;-66
2024/04/16 08:34:38;;;;;;;8.60;2.50;;;;;;;14.55;37.36;98944.77;111291;1251;22185;-67
2024/04/16 08:37:07;;;;;;;8.60;2.40;;;;;;;14.44;38.40;98943.07;111329;1247;23025;-65
2024/04/16 08:39:36;;;;;;;4.10;1.60;;;;;;;14.36;38.44;98942.88;111373;1251;21968;-65
2024/04/16 08:42:08;;;;;;;3.50;1.90;;;;;;;14.23;38.95;98950.33;111340;1245;21954;-65
2024/04/16 08:44:38;;;;;;;3.70;1.90;;;;;;;13.98;39.28;98954.80;111028;1251;21951;-66
2024/04/16 08:47:08;;;;;;;5.00;2.20;;;;;;;13.59;39.52;98953.98;111343;1251;21960;-65
2024/04/16 08:49:39;;;;;;;6.40;2.10;;;;;;;13.20;39.87;98955.20;111006;1251;21956;-66
2024/04/16 08:52:12;;;;;;;5.10;1.50;;;;;;;12.79;40.62;98957.02;111158;1251;21958;-67
2024/04/16 08:54:43;;;;;;;4.00;2.00;;;;;;;12.43;41.29;98955.73;111014;1251;21956;-65
2024/04/16 08:57:11;;;;;;;5.50;1.80;;;;;;;12.26;41.57;98950.77;111029;1248;22548;-65
2024/04/16 08:59:40;;;;;;;4.60;1.80;;;;;;;12.34;42.10;98946.88;111284;1251;21952;-66
2024/04/16 09:02:10;;;;;;;7.40;2.50;;;;;;;12.47;41.75;98947.40;111350;1251;21960;-66
2024/04/16 09:04:41;;;;;;;6.70;3.10;;;;;;;12.55;41.59;98950.48;111384;1251;21949;-65
2024/04/16 09:07:11;;;;;;;7.50;2.40;;;;;;;12.55;41.67;98956.70;111060;1251;21980;-65
2024/04/16 09:09:40;;;;;;;5.60;2.30;;;;;;;12.43;41.39;98957.33;111126;1251;23733;-65
2024/04/16 09:12:10;;;;;;;7.20;2.40;;;;;;;12.36;41.48;98956.61;111072;1251;21942;-67
2024/04/16 09:14:38;;;;;;;5.40;3.10;;;;;;;12.36;41.27;98954.70;111124;1251;22746;-67
2024/04/16 09:17:14;;;;;;;10.00;3.10;;;;;;;12.32;41.36;98959.66;111376;1251;21934;-66
2024/04/16 09:19:43;;;;;;;5.10;2.90;;;;;;;12.32;41.74;98961.45;111302;1251;21971;-66
2024/04/16 09:22:12;;;;;;;6.20;3.10;;;;;;;12.41;41.62;98951.86;111368;1251;21949;-66
2024/04/16 09:24:41;;;;;;;8.10;2.80;;;;;;;12.71;41.75;98958.38;111325;1251;21963;-66
2024/04/16 09:27:10;;;;;;;6.60;2.50;;;;;;;13.35;41.04;98958.08;111379;1251;21954;-66
2024/04/16 09:29:39;;;;;;;7.40;2.60;;;;;;;13.96;39.73;98949.73;111530;1251;22818;-65
2024/04/16 09:32:08;;;;;;;4.90;2.20;;;;;;;14.41;38.73;98955.48;111037;1251;21952;-64
2024/04/16 09:34:42;;;;;;;4.30;1.70;;;;;;;14.57;37.37;98952.38;111332;1251;23010;-65
2024/04/16 09:37:19;;;;;;;4.40;1.80;;;;;;;14.41;37.15;98951.04;111042;1251;21949;-67
2024/04/16 09:39:52;;;;;;;6.30;2.30;;;;;;;14.30;37.38;98950.17;111326;1251;21963;-65
2024/04/16 09:42:22;;;;;;;6.60;1.90;;;;;;;14.32;37.61;98951.86;111442;1246;24299;-67
2024/04/16 09:44:51;;;;;;;6.20;1.80;;;;;;;14.34;37.40;98949.47;111366;1251;21995;-65
2024/04/16 09:47:22;;;;;;;23.50;5.80;;;;;;;14.23;37.26;98948.00;111062;1251;22996;-65
2024/04/16 09:49:55;;;;;;;7.70;2.40;;;;;;;14.14;37.28;98943.91;111039;1251;21940;-66
2024/04/16 09:52:44;;;;;;;6.70;1.80;;;;;;;14.00;37.14;98946.98;111252;1251;23492;-66
2024/04/16 09:55:15;;;;;;;4.00;1.70;;;;;;;13.86;37.40;98956.92;111341;1251;21960;-67
2024/04/16 09:57:47;;;;;;;7.70;2.30;;;;;;;13.72;37.58;98953.86;111414;1251;23647;-65
2024/04/16 10:00:20;;;;;;;8.50;1.90;;;;;;;13.56;37.62;98949.73;111106;1251;21952;-65
2024/04/16 10:02:49;;;;;;;5.20;1.60;;;;;;;13.45;37.60;98951.70;111028;1251;22730;-66
2024/04/16 10:05:18;;;;;;;7.00;2.00;;;;;;;13.32;38.16;98949.14;111322;1251;21958;-64
2024/04/16 10:07:48;;;;;;;3.10;1.80;;;;;;;13.21;38.29;98946.23;111338;1251;21956;-65
2024/04/16 10:10:17;;;;;;;4.80;2.60;;;;;;;13.14;38.35;98944.32;111422;1251;23649;-65
2024/04/16 10:12:46;;;;;;;4.60;2.40;;;;;;;13.06;38.36;98941.29;111360;1251;21953;-67
2024/04/16 10:15:15;;;;;;;6.40;2.10;;;;;;;12.96;38.52;98939.21;111387;1251;22066;-65
2024/04/16 10:17:52;;;;;;;10.10;2.50;;;;;;;12.82;38.45;98938.41;111191;1251;21950;-67
2024/04/16 10:20:26;;;;;;;3.30;1.50;;;;;;;12.60;38.73;98942.60;111389;1251;21963;-66
2024/04/16 10:22:58;;;;;;;7.60;3.20;;;;;;;12.41;39.10;98945.11;111369;1251;21994;-64
2024/04/16 10:25:32;;;;;;;7.50;2.70;;;;;;;12.28;39.26;98940.66;111363;1251;21966;-66
2024/04/16 10:28:03;;;;;;;5.30;2.60;;;;;;;12.11;39.78;98940.59;111366;1251;21964;-64
2024/04/16 10:30:35;;;;;;;4.00;2.70;;;;;;;11.98;40.14;98935.89;111309;1251;23602;-67
2024/04/16 10:33:11;;;;;;;3.90;2.10;;;;;;;11.88;40.38;98938.21;111325;1251;21980;-66
2024/04/16 10:35:44;;;;;;;5.30;1.70;;;;;;;11.77;39.69;98935.93;111053;1243;23006;-64
2024/04/16 10:38:12;;;;;;;5.40;1.90;;;;;;;11.68;39.63;98938.45;111304;1251;24299;-65
2024/04/16 10:40:41;;;;;;;4.40;1.70;;;;;;;11.65;39.24;98933.98;111332;1251;21951;-67
2024/04/16 10:43:10;;;;;;;4.00;1.80;;;;;;;11.56;39.47;98936.09;111381;1251;21954;-66
2024/04/16 10:45:44;;;;;;;5.60;2.00;;;;;;;11.51;39.88;98931.11;111535;1251;24090;-66
2024/04/16 10:48:14;;;;;;;4.20;2.10;;;;;;;11.52;40.06;98931.52;111347;1251;21954;-65
2024/04/16 10:50:44;;;;;;;5.20;2.30;;;;;;;11.56;40.31;98925.49;111362;1251;23029;-66
2024/04/16 10:53:15;;;;;;;5.90;2.50;;;;;;;11.62;40.80;98926.14;111139;1251;21960;-65
2024/04/16 10:55:48;;;;;;;8.70;2.10;;;;;;;11.72;41.04;98931.20;111350;1239;23039;-65
2024/04/16 10:58:19;;;;;;;3.90;2.00;;;;;;;11.82;40.41;98936.56;111348;1251;21954;-66
2024/04/16 11:00:55;;;;;;;5.90;2.60;;;;;;;11.86;39.68;98939.02;111326;1251;22940;-65
2024/04/16 11:03:24;;;;;;;4.10;2.00;;;;;;;11.79;39.37;98939.27;111326;1251;21953;-65
2024/04/16 11:05:56;;;;;;;5.10;3.30;;;;;;;11.75;39.70;98941.96;111450;1251;21957;-66
2024/04/16 11:08:26;;;;;;;5.30;2.50;;;;;;;11.78;39.94;98946.98;111062;1251;22991;-65
2024/04/16 11:10:55;;;;;;;6.20;2.20;;;;;;;11.81;39.92;98943.48;111357;1251;21955;-64
2024/04/16 11:13:26;;;;;;;5.70;1.80;;;;;;;11.90;39.72;98943.46;111316;1248;23003;-65
2024/04/16 11:15:56;;;;;;;4.60;1.80;;;;;;;12.01;39.74;98940.52;111023;1246;21966;-66
2024/04/16 11:18:27;;;;;;;3.60;1.30;;;;;;;12.09;39.68;98938.67;111069;1251;23008;-65
2024/04/16 11:20:57;;;;;;;3.80;2.00;;;;;;;12.10;39.99;98929.59;111373;1251;23602;-66
2024/04/16 11:23:26;;;;;;;4.40;1.60;;;;;;;12.13;39.90;98928.63;111385;1251;23026;-65
2024/04/16 11:25:55;;;;;;;3.70;1.50;;;;;;;12.18;39.49;98924.16;111075;1251;21951;-66
2024/04/16 11:28:24;;;;;;;4.80;2.00;;;;;;;12.25;39.43;98922.21;111391;1251;21975;-66
2024/04/16 11:30:55;;;;;;;4.50;2.00;;;;;;;12.33;39.51;98917.39;111049;1251;21992;-67
2024/04/16 11:33:25;;;;;;;4.70;1.60;;;;;;;12.43;39.54;98910.56;111016;1251;21960;-66
2024/04/16 11:36:08;;;;;;;3.50;1.50;;;;;;;12.52;39.16;98908.48;111657;1251;23579;-68
2024/04/16 11:38:41;;;;;;;3.70;2.10;;;;;;;12.61;38.79;98904.20;111379;1251;21961;-67
2024/04/16 11:41:15;;;;;;;3.30;1.80;;;;;;;12.68;38.68;98897.77;111694;1251;23526;-67
2024/04/16 11:43:46;;;;;;;5.40;1.80;;;;;;;12.75;38.84;98895.79;111350;1251;23560;-69